Time;durP1;ratioP1;P1;durP2;ratioP2;P2;SDS_P1;SDS_P2;PMS_P1;PMS_P2;Temp;Humidity;BMP_temperature;BMP_pressure;BME280_temperature;BME280_humidity;BME280_pressure;Samples;Min_cycle;Max_cycle;Signal;HPM_P1;HPM_P2
2021/06/28 00:00:46;;;;;;;;;;;10.90;99.90;;;;;;5076344;28;20016;-68
2021/06/28 00:03:12;;;;;;;;;;;11.00;99.90;;;;;;5076367;28;19916;-69
2021/06/28 00:05:39;;;;;;;;;;;11.10;99.90;;;;;;5076101;28;19970;-69
2021/06/28 00:08:06;;;;;;;;;;;11.10;99.90;;;;;;5076007;28;20020;-70
2021/06/28 00:10:33;;;;;;;;;;;11.10;99.90;;;;;;5076102;28;20378;-69
2021/06/28 00:13:00;;;;;;;;;;;11.10;99.90;;;;;;5073155;28;19913;-69
2021/06/28 00:15:29;;;;;;;;;;;11.10;99.90;;;;;;5070469;28;19909;-68
2021/06/28 00:17:56;;;;;;;;;;;11.20;99.90;;;;;;5055243;28;19912;-69
2021/06/28 00:20:23;;;;;;;;;;;11.20;99.90;;;;;;5055071;28;19924;-69
2021/06/28 00:22:50;;;;;;;;;;;11.30;99.90;;;;;;5055170;28;19908;-69
2021/06/28 00:25:18;;;;;;;;;;;11.30;99.90;;;;;;5055094;28;20342;-69
2021/06/28 00:27:45;;;;;;;;;;;11.30;99.90;;;;;;5072058;28;19930;-69
2021/06/28 00:30:13;;;;;;;;;;;11.30;99.90;;;;;;5075484;28;20064;-69
2021/06/28 00:32:41;;;;;;;;;;;11.40;99.90;;;;;;5075759;28;20354;-69
2021/06/28 00:35:12;;;;;;;;;;;11.50;99.90;;;;;;5073696;28;20016;-71
2021/06/28 00:37:39;;;;;;;;;;;11.60;99.90;;;;;;5074810;28;19954;-69
2021/06/28 00:40:10;;;;;;;;;;;11.70;99.90;;;;;;5075086;28;19921;-69
2021/06/28 00:42:37;;;;;;;;;;;11.90;99.90;;;;;;5075457;28;19915;-70
2021/06/28 00:45:21;;;;;;;;;;;12.00;99.90;;;;;;5075290;28;19908;-68
2021/06/28 00:47:49;;;;;;;;;;;12.00;99.90;;;;;;5075389;28;19908;-68
2021/06/28 00:50:16;;;;;;;;;;;12.10;99.90;;;;;;5075586;28;20322;-69
2021/06/28 00:52:45;;;;;;;;;;;12.20;99.90;;;;;;5075442;28;19908;-68
2021/06/28 00:55:12;;;;;;;;;;;12.40;99.90;;;;;;5075334;28;19912;-69
2021/06/28 00:57:39;;;;;;;;;;;12.60;99.90;;;;;;5075271;28;19956;-71
2021/06/28 01:00:07;;;;;;;;;;;12.80;99.90;;;;;;5075336;28;19920;-68
2021/06/28 01:02:34;;;;;;;;;;;13.00;99.90;;;;;;5075308;28;19951;-68
2021/06/28 01:05:01;;;;;;;;;;;13.10;99.90;;;;;;5074958;28;19912;-69
2021/06/28 01:07:29;;;;;;;;;;;13.30;99.90;;;;;;5075355;28;19930;-70
2021/06/28 01:09:56;;;;;;;;;;;13.40;99.90;;;;;;5073779;28;19959;-70
2021/06/28 01:12:23;;;;;;;;;;;13.40;99.90;;;;;;5075130;28;19915;-70
2021/06/28 01:14:50;;;;;;;;;;;13.40;99.90;;;;;;5074648;28;19964;-71
2021/06/28 01:17:17;;;;;;;;;;;13.40;99.90;;;;;;5073485;28;19909;-68
2021/06/28 01:19:46;;;;;;;;;;;13.30;99.90;;;;;;5072518;28;19920;-68
2021/06/28 01:22:14;;;;;;;;;;;13.20;99.90;;;;;;5073646;28;20356;-68
2021/06/28 01:24:41;;;;;;;;;;;13.10;99.90;;;;;;5074761;28;19909;-69
2021/06/28 01:27:08;;;;;;;;;;;13.00;99.90;;;;;;5067292;28;19913;-70
2021/06/28 01:29:34;;;;;;;;;;;12.80;99.90;;;;;;5056832;28;20443;-68
2021/06/28 01:32:01;;;;;;;;;;;12.80;99.90;;;;;;5053803;28;19919;-68
2021/06/28 01:34:28;;;;;;;;;;;12.70;99.90;;;;;;5053817;28;20007;-68
2021/06/28 01:36:54;;;;;;;;;;;12.70;99.90;;;;;;5064911;28;19908;-68
2021/06/28 01:39:21;;;;;;;;;;;12.60;99.90;;;;;;5074294;28;19916;-68
2021/06/28 01:41:48;;;;;;;;;;;12.50;99.90;;;;;;5074197;28;19913;-68
2021/06/28 01:44:14;;;;;;;;;;;12.40;99.90;;;;;;5074163;28;20259;-69
2021/06/28 01:46:41;;;;;;;;;;;12.40;99.90;;;;;;5074307;28;19966;-67
2021/06/28 01:49:08;;;;;;;;;;;12.30;99.90;;;;;;5073805;28;19932;-68
2021/06/28 01:51:34;;;;;;;;;;;12.30;99.90;;;;;;5073994;28;19962;-68
2021/06/28 01:54:01;;;;;;;;;;;12.30;99.90;;;;;;5074254;28;19951;-69
2021/06/28 01:56:28;;;;;;;;;;;12.30;99.90;;;;;;5073892;28;19935;-69
2021/06/28 01:58:55;;;;;;;;;;;12.40;99.90;;;;;;5073792;28;19908;-70
2021/06/28 02:01:22;;;;;;;;;;;12.40;99.90;;;;;;5073973;28;19912;-69
2021/06/28 02:03:48;;;;;;;;;;;12.50;99.90;;;;;;5073703;28;19951;-70
2021/06/28 02:06:15;;;;;;;;;;;12.50;99.90;;;;;;5074011;28;19908;-69
2021/06/28 02:08:42;;;;;;;;;;;12.60;99.90;;;;;;5073824;28;19908;-69
2021/06/28 02:11:08;;;;;;;;;;;12.60;99.90;;;;;;5073727;28;19915;-68
2021/06/28 02:13:36;;;;;;;;;;;12.60;99.90;;;;;;5073296;28;19920;-71
2021/06/28 02:16:03;;;;;;;;;;;12.60;99.90;;;;;;5073552;28;19912;-70
2021/06/28 02:18:30;;;;;;;;;;;12.70;99.90;;;;;;5073537;28;19909;-71
2021/06/28 02:20:58;;;;;;;;;;;12.70;99.90;;;;;;5073501;28;20287;-70
2021/06/28 02:23:27;;;;;;;;;;;12.70;99.90;;;;;;5073572;28;19909;-71
2021/06/28 02:25:57;;;;;;;;;;;12.70;99.90;;;;;;5073263;28;19908;-70
2021/06/28 02:28:27;;;;;;;;;;;12.80;99.90;;;;;;5065852;28;19915;-71
2021/06/28 02:30:54;;;;;;;;;;;12.80;99.90;;;;;;5053559;28;19916;-69
2021/06/28 02:33:21;;;;;;;;;;;12.90;99.90;;;;;;5052217;28;20405;-69
2021/06/28 02:35:48;;;;;;;;;;;12.90;99.90;;;;;;5052262;28;19909;-69
2021/06/28 02:38:15;;;;;;;;;;;12.90;99.90;;;;;;5052174;28;19996;-68
2021/06/28 02:40:42;;;;;;;;;;;12.90;99.90;;;;;;5052390;28;20003;-69
2021/06/28 02:43:08;;;;;;;;;;;12.80;99.90;;;;;;5052829;28;19948;-67
2021/06/28 02:45:35;;;;;;;;;;;12.80;99.90;;;;;;5052473;28;19912;-69
2021/06/28 02:48:02;;;;;;;;;;;12.90;99.90;;;;;;5052445;28;20256;-68
2021/06/28 02:50:29;;;;;;;;;;;12.90;99.90;;;;;;5052806;28;20359;-69
2021/06/28 02:52:56;;;;;;;;;;;12.80;99.90;;;;;;5069148;28;20275;-69
2021/06/28 02:55:23;;;;;;;;;;;12.80;99.90;;;;;;5073391;28;19913;-70
2021/06/28 02:57:50;;;;;;;;;;;12.80;99.90;;;;;;5072304;28;20070;-69
2021/06/28 03:00:17;;;;;;;;;;;12.80;99.90;;;;;;5072987;28;19960;-70
2021/06/28 03:02:44;;;;;;;;;;;12.80;99.90;;;;;;5072550;28;20004;-69
2021/06/28 03:05:12;;;;;;;;;;;12.80;99.90;;;;;;5073021;28;20335;-70
2021/06/28 03:07:39;;;;;;;;;;;12.90;99.90;;;;;;5072860;28;19915;-68
2021/06/28 03:10:09;;;;;;;;;;;12.80;99.90;;;;;;5073207;28;19915;-70
2021/06/28 03:12:36;;;;;;;;;;;12.80;99.90;;;;;;5072934;28;19909;-69
2021/06/28 03:15:07;;;;;;;;;;;12.80;99.90;;;;;;5072772;28;19935;-70
2021/06/28 03:17:34;;;;;;;;;;;12.80;99.90;;;;;;5072888;28;19909;-69
2021/06/28 03:20:01;;;;;;;;;;;12.80;99.90;;;;;;5072843;28;19920;-70
2021/06/28 03:22:28;;;;;;;;;;;12.80;99.90;;;;;;5073120;28;19923;-71
2021/06/28 03:24:54;;;;;;;;;;;12.80;99.90;;;;;;5073007;28;20343;-69
2021/06/28 03:27:22;;;;;;;;;;;12.80;99.90;;;;;;5072796;28;19916;-67
2021/06/28 03:29:48;;;;;;;;;;;12.80;99.90;;;;;;5073071;28;19915;-69
2021/06/28 03:32:15;;;;;;;;;;;12.80;99.90;;;;;;5072970;28;20363;-69
2021/06/28 03:34:42;;;;;;;;;;;12.70;99.90;;;;;;5073178;28;19908;-69
2021/06/28 03:37:09;;;;;;;;;;;12.80;99.90;;;;;;5073168;28;19915;-67
2021/06/28 03:39:36;;;;;;;;;;;12.80;99.90;;;;;;5072450;28;20011;-69
2021/06/28 03:42:03;;;;;;;;;;;12.80;99.90;;;;;;5072649;28;19908;-68
2021/06/28 03:44:29;;;;;;;;;;;12.80;99.90;;;;;;5072781;28;19915;-68
2021/06/28 03:46:56;;;;;;;;;;;12.80;99.90;;;;;;5072814;28;19908;-69
2021/06/28 03:49:23;;;;;;;;;;;12.80;99.90;;;;;;5072704;28;20291;-69
2021/06/28 03:51:49;;;;;;;;;;;12.80;99.90;;;;;;5072480;28;19909;-69
2021/06/28 03:54:16;;;;;;;;;;;12.80;99.90;;;;;;5072595;28;19915;-69
2021/06/28 03:56:43;;;;;;;;;;;12.90;99.90;;;;;;5071978;28;19916;-69
2021/06/28 03:59:09;;;;;;;;;;;12.90;99.90;;;;;;5072562;28;19915;-68
2021/06/28 04:01:36;;;;;;;;;;;12.90;99.90;;;;;;5071778;28;19916;-69
2021/06/28 04:04:03;;;;;;;;;;;12.90;99.90;;;;;;5072517;28;19909;-68
2021/06/28 04:06:30;;;;;;;;;;;12.90;99.90;;;;;;5072514;28;20305;-68
2021/06/28 04:08:56;;;;;;;;;;;13.00;99.90;;;;;;5072455;28;19970;-68
2021/06/28 04:11:23;;;;;;;;;;;13.00;99.90;;;;;;5072702;28;20003;-68
2021/06/28 04:13:50;;;;;;;;;;;13.10;99.90;;;;;;5074927;28;19925;-68
2021/06/28 04:16:17;;;;;;;;;;;13.20;99.90;;;;;;5076367;28;19909;-69
2021/06/28 04:18:43;;;;;;;;;;;13.30;99.90;;;;;;5076401;28;20277;-69
2021/06/28 04:21:10;;;;;;;;;;;13.40;99.90;;;;;;5076418;28;20009;-68
2021/06/28 04:23:36;;;;;;;;;;;13.50;99.90;;;;;;5075989;28;19916;-68
2021/06/28 04:26:03;;;;;;;;;;;13.60;99.90;;;;;;5076053;28;20366;-68
2021/06/28 04:28:30;;;;;;;;;;;13.60;99.90;;;;;;5076073;28;19969;-68
2021/06/28 04:30:57;;;;;;;;;;;13.70;99.90;;;;;;5076278;28;19913;-69
2021/06/28 04:33:24;;;;;;;;;;;13.80;99.90;;;;;;5075918;28;19916;-70
2021/06/28 04:35:51;;;;;;;;;;;13.80;99.90;;;;;;5075669;28;19908;-70
2021/06/28 04:38:19;;;;;;;;;;;13.90;99.90;;;;;;5075779;28;19916;-69
2021/06/28 04:40:47;;;;;;;;;;;13.90;99.90;;;;;;5075719;28;20414;-69
2021/06/28 04:43:15;;;;;;;;;;;13.90;99.90;;;;;;5074396;28;20005;-70
2021/06/28 04:45:41;;;;;;;;;;;13.90;99.90;;;;;;5075564;28;20062;-70
2021/06/28 04:48:08;;;;;;;;;;;13.90;99.90;;;;;;5075932;28;19909;-70
2021/06/28 04:50:35;;;;;;;;;;;13.90;99.90;;;;;;5075974;28;19999;-69
2021/06/28 04:53:02;;;;;;;;;;;13.80;99.90;;;;;;5075746;28;19912;-69
2021/06/28 04:55:29;;;;;;;;;;;13.90;99.90;;;;;;5075690;28;19908;-69
2021/06/28 04:57:55;;;;;;;;;;;13.90;99.90;;;;;;5075240;28;19955;-71
2021/06/28 05:00:24;;;;;;;;;;;13.90;99.90;;;;;;5075455;28;20334;-70
2021/06/28 05:02:51;;;;;;;;;;;14.00;99.90;;;;;;5075441;28;19908;-71
2021/06/28 05:05:18;;;;;;;;;;;14.10;99.90;;;;;;5075215;28;19920;-71
2021/06/28 05:07:45;;;;;;;;;;;14.00;99.90;;;;;;5075019;28;19999;-70
2021/06/28 05:10:12;;;;;;;;;;;14.10;99.90;;;;;;5074989;28;19912;-70
2021/06/28 05:12:40;;;;;;;;;;;14.10;99.90;;;;;;5074281;28;19909;-69
2021/06/28 05:15:07;;;;;;;;;;;14.10;99.90;;;;;;5074754;28;19948;-69
2021/06/28 05:17:34;;;;;;;;;;;14.10;99.90;;;;;;5074835;28;20390;-70
2021/06/28 05:20:01;;;;;;;;;;;14.20;99.90;;;;;;5074933;28;19916;-70
2021/06/28 05:22:28;;;;;;;;;;;14.30;99.90;;;;;;5074595;28;19997;-69
2021/06/28 05:24:55;;;;;;;;;;;14.40;99.90;;;;;;5074210;28;19915;-70
2021/06/28 05:27:21;;;;;;;;;;;14.50;99.90;;;;;;5074202;28;20013;-68
2021/06/28 05:29:55;;;;;;;;;;;14.60;99.90;;;;;;5074215;28;19970;-69
2021/06/28 05:32:22;;;;;;;;;;;14.70;99.90;;;;;;5073212;28;19916;-69
2021/06/28 05:34:50;;;;;;;;;;;14.70;99.90;;;;;;5074435;28;20314;-69
2021/06/28 05:37:17;;;;;;;;;;;14.70;99.90;;;;;;5074328;28;19943;-70
2021/06/28 05:39:44;;;;;;;;;;;14.70;99.90;;;;;;5074090;28;20359;-70
2021/06/28 05:42:11;;;;;;;;;;;14.70;99.90;;;;;;5074642;28;20436;-69
2021/06/28 05:44:38;;;;;;;;;;;14.70;99.90;;;;;;5074391;28;19908;-69
2021/06/28 05:47:05;;;;;;;;;;;14.60;99.90;;;;;;5074109;28;19909;-70
2021/06/28 05:49:34;;;;;;;;;;;14.70;99.90;;;;;;5074133;28;19908;-70
2021/06/28 05:52:01;;;;;;;;;;;14.60;99.90;;;;;;5074145;28;19955;-70
2021/06/28 05:54:28;;;;;;;;;;;14.60;99.90;;;;;;5074239;28;20231;-70
2021/06/28 05:56:54;;;;;;;;;;;14.60;99.90;;;;;;5073911;28;19954;-69
2021/06/28 05:59:21;;;;;;;;;;;14.60;99.90;;;;;;5073908;28;19920;-69
2021/06/28 06:01:47;;;;;;;;;;;14.60;99.90;;;;;;5073942;28;20008;-69
2021/06/28 06:04:14;;;;;;;;;;;14.60;99.90;;;;;;5073875;28;19999;-70
2021/06/28 06:06:41;;;;;;;;;;;14.60;99.90;;;;;;5073749;28;19912;-69
2021/06/28 06:09:08;;;;;;;;;;;14.60;99.90;;;;;;5073580;28;19916;-69
2021/06/28 06:11:35;;;;;;;;;;;14.60;99.90;;;;;;5073450;28;19908;-69
2021/06/28 06:14:02;;;;;;;;;;;14.60;99.90;;;;;;5073514;28;20141;-71
2021/06/28 06:16:29;;;;;;;;;;;14.50;99.90;;;;;;5073834;28;19909;-70
2021/06/28 06:18:56;;;;;;;;;;;14.50;99.90;;;;;;5073619;28;19909;-70
2021/06/28 06:21:23;;;;;;;;;;;14.50;99.90;;;;;;5073455;28;19916;-71
2021/06/28 06:23:50;;;;;;;;;;;14.40;99.90;;;;;;5073376;28;19919;-71
2021/06/28 06:26:17;;;;;;;;;;;14.40;99.90;;;;;;5072821;28;20045;-70
2021/06/28 06:28:44;;;;;;;;;;;14.50;99.90;;;;;;5072018;28;19915;-71
2021/06/28 06:31:11;;;;;;;;;;;14.40;99.90;;;;;;5073447;28;20399;-71
2021/06/28 06:33:38;;;;;;;;;;;14.50;99.90;;;;;;5073214;28;19908;-70
2021/06/28 06:36:05;;;;;;;;;;;14.50;99.90;;;;;;5072434;28;19962;-70
2021/06/28 06:38:32;;;;;;;;;;;14.50;99.90;;;;;;5073074;28;19915;-71
2021/06/28 06:40:59;;;;;;;;;;;14.50;99.90;;;;;;5072899;28;19924;-70
2021/06/28 06:43:26;;;;;;;;;;;14.50;99.90;;;;;;5073218;28;20466;-70
2021/06/28 06:45:52;;;;;;;;;;;14.50;99.90;;;;;;5072919;28;19962;-70
2021/06/28 06:48:19;;;;;;;;;;;14.50;99.90;;;;;;5073016;28;19920;-70
2021/06/28 06:50:45;;;;;;;;;;;14.40;99.90;;;;;;5073128;28;20270;-70
2021/06/28 06:53:12;;;;;;;;;;;14.40;99.90;;;;;;5073047;28;20416;-70
2021/06/28 06:55:39;;;;;;;;;;;14.40;99.90;;;;;;5072703;28;20278;-70
2021/06/28 06:58:08;;;;;;;;;;;14.40;99.90;;;;;;5073154;28;19909;-69
2021/06/28 07:00:35;;;;;;;;;;;14.30;99.90;;;;;;5073002;28;19916;-69
2021/06/28 07:03:02;;;;;;;;;;;14.30;99.90;;;;;;5073102;28;19978;-68
2021/06/28 07:05:29;;;;;;;;;;;14.30;99.90;;;;;;5073104;28;20294;-67
2021/06/28 07:07:55;;;;;;;;;;;14.20;99.90;;;;;;5073060;28;20322;-68
2021/06/28 07:10:23;;;;;;;;;;;14.20;99.90;;;;;;5072948;28;19916;-69
2021/06/28 07:12:50;;;;;;;;;;;14.20;99.90;;;;;;5072482;28;19909;-68
2021/06/28 07:15:18;;;;;;;;;;;14.10;99.90;;;;;;5073214;28;19917;-68
2021/06/28 07:17:45;;;;;;;;;;;14.10;99.90;;;;;;5072750;28;20324;-70
2021/06/28 07:20:13;;;;;;;;;;;14.00;99.90;;;;;;5072809;28;19962;-69
2021/06/28 07:22:40;;;;;;;;;;;14.00;99.90;;;;;;5072826;28;19913;-69
2021/06/28 07:25:08;;;;;;;;;;;14.00;99.90;;;;;;5072857;28;20367;-68
2021/06/28 07:27:35;;;;;;;;;;;14.00;99.90;;;;;;5072521;28;19908;-68
2021/06/28 07:30:02;;;;;;;;;;;14.00;99.90;;;;;;5072882;28;20333;-69
2021/06/28 07:32:28;;;;;;;;;;;14.00;99.90;;;;;;5072841;28;19953;-69
2021/06/28 07:34:55;;;;;;;;;;;13.90;99.90;;;;;;5072937;28;19909;-69
2021/06/28 07:37:21;;;;;;;;;;;13.90;99.90;;;;;;5072794;28;20395;-68
2021/06/28 07:39:48;;;;;;;;;;;13.90;99.90;;;;;;5071663;28;20005;-69
2021/06/28 07:42:15;;;;;;;;;;;13.90;99.90;;;;;;5070596;28;20018;-68
2021/06/28 07:44:42;;;;;;;;;;;13.90;99.90;;;;;;5070595;28;19912;-69
2021/06/28 07:47:09;;;;;;;;;;;13.90;99.90;;;;;;5070894;28;19912;-69
2021/06/28 07:49:36;;;;;;;;;;;13.80;99.90;;;;;;5074328;28;19915;-70
2021/06/28 07:52:03;;;;;;;;;;;13.80;99.90;;;;;;5074343;28;19908;-70
2021/06/28 07:54:30;;;;;;;;;;;13.80;99.90;;;;;;5074203;28;19909;-70
2021/06/28 07:56:57;;;;;;;;;;;13.70;99.90;;;;;;5073511;28;19920;-70
2021/06/28 07:59:23;;;;;;;;;;;13.70;99.90;;;;;;5074300;28;20303;-69
2021/06/28 08:01:50;;;;;;;;;;;13.70;99.90;;;;;;5074047;28;19916;-68
2021/06/28 08:04:17;;;;;;;;;;;13.70;99.90;;;;;;5074117;28;20392;-68
2021/06/28 08:06:43;;;;;;;;;;;13.70;99.90;;;;;;5074239;28;19912;-69
2021/06/28 08:09:10;;;;;;;;;;;13.70;99.90;;;;;;5074137;28;19931;-70
2021/06/28 08:11:37;;;;;;;;;;;13.70;99.90;;;;;;5073733;28;20401;-69
2021/06/28 08:14:05;;;;;;;;;;;13.70;99.90;;;;;;5072799;28;19958;-70
2021/06/28 08:16:32;;;;;;;;;;;13.80;99.90;;;;;;5073672;28;20370;-69
2021/06/28 08:18:58;;;;;;;;;;;13.80;99.90;;;;;;5073269;28;19909;-71
2021/06/28 08:21:25;;;;;;;;;;;13.70;99.90;;;;;;5073833;28;19920;-69
2021/06/28 08:23:52;;;;;;;;;;;13.70;99.90;;;;;;5073460;28;19916;-70
2021/06/28 08:26:18;;;;;;;;;;;13.70;99.90;;;;;;5073667;28;20019;-70
2021/06/28 08:28:45;;;;;;;;;;;13.70;99.90;;;;;;5073759;28;19915;-69
2021/06/28 08:31:13;;;;;;;;;;;13.70;99.90;;;;;;5073624;28;20372;-70
2021/06/28 08:33:40;;;;;;;;;;;13.70;99.90;;;;;;5073386;28;20621;-69
2021/06/28 08:36:07;;;;;;;;;;;13.70;99.90;;;;;;5074400;28;20469;-70
2021/06/28 08:38:34;;;;;;;;;;;13.70;99.90;;;;;;5074190;28;20007;-69
2021/06/28 08:41:01;;;;;;;;;;;13.70;99.90;;;;;;5072640;28;20276;-69
2021/06/28 08:43:27;;;;;;;;;;;13.60;99.90;;;;;;5073918;28;19912;-68
2021/06/28 08:45:55;;;;;;;;;;;13.50;99.90;;;;;;5073587;28;19931;-69
2021/06/28 08:48:22;;;;;;;;;;;13.50;99.90;;;;;;5074509;28;19919;-68
2021/06/28 08:50:52;;;;;;;;;;;13.60;99.90;;;;;;5075257;28;19920;-69
2021/06/28 08:53:21;;;;;;;;;;;13.60;99.90;;;;;;5074483;28;19920;-70
2021/06/28 08:55:48;;;;;;;;;;;13.60;99.90;;;;;;5073910;28;20355;-69
2021/06/28 08:58:14;;;;;;;;;;;13.60;99.90;;;;;;5072511;28;19909;-69
2021/06/28 09:00:41;;;;;;;;;;;13.60;99.90;;;;;;5072476;28;20367;-69
2021/06/28 09:03:10;;;;;;;;;;;13.60;99.90;;;;;;5073115;28;19966;-69
2021/06/28 09:05:53;;;;;;;;;;;13.60;99.90;;;;;;5072193;28;19977;-69
2021/06/28 09:08:22;;;;;;;;;;;13.60;99.90;;;;;;5075020;28;19913;-69
2021/06/28 09:10:49;;;;;;;;;;;13.60;99.90;;;;;;5074902;28;20351;-68
2021/06/28 09:13:16;;;;;;;;;;;13.60;99.90;;;;;;5074815;28;20376;-68
2021/06/28 09:15:44;;;;;;;;;;;13.60;99.90;;;;;;5074734;28;19959;-68
2021/06/28 09:18:14;;;;;;;;;;;13.60;99.90;;;;;;5074853;28;19979;-68
2021/06/28 09:20:41;;;;;;;;;;;13.60;99.90;;;;;;5074824;28;20425;-69
2021/06/28 09:23:18;;;;;;;;;;;13.60;99.90;;;;;;5074582;28;19908;-68
2021/06/28 09:25:45;;;;;;;;;;;13.50;99.90;;;;;;5071712;28;20409;-69
2021/06/28 09:28:12;;;;;;;;;;;13.40;99.90;;;;;;5054662;28;19912;-69
2021/06/28 09:30:50;;;;;;;;;;;13.30;99.90;;;;;;5054645;28;19909;-68
2021/06/28 09:33:20;;;;;;;;;;;13.30;99.90;;;;;;5054400;28;19909;-68
2021/06/28 09:35:47;;;;;;;;;;;13.30;99.90;;;;;;5054485;28;19909;-69
2021/06/28 09:38:49;;;;;;;;;;;13.30;99.90;;;;;;5053871;28;19934;-69
2021/06/28 09:41:41;;;;;;;;;;;13.40;99.90;;;;;;4992744;28;20412;-69
2021/06/28 09:44:09;;;;;;;;;;;13.40;99.90;;;;;;5049665;28;20003;-69
2021/06/28 09:46:36;;;;;;;;;;;13.40;99.90;;;;;;5054143;28;19927;-69
2021/06/28 09:49:04;;;;;;;;;;;13.40;99.90;;;;;;5054278;28;19908;-68
2021/06/28 09:51:35;;;;;;;;;;;13.40;99.90;;;;;;5053728;28;19913;-69
2021/06/28 09:54:08;;;;;;;;;;;13.40;99.90;;;;;;5054100;28;19920;-69
2021/06/28 09:56:39;;;;;;;;;;;13.40;99.90;;;;;;5054025;28;19934;-68
2021/06/28 09:59:31;;;;;;;;;;;13.40;99.90;;;;;;5054152;28;19913;-69
2021/06/28 10:02:18;;;;;;;;;;;13.30;99.90;;;;;;5051326;28;19923;-68
2021/06/28 10:05:56;;;;;;;;;;;13.30;99.90;;;;;;5053819;28;19936;-69
2021/06/28 10:07:48;;;;;;;;;;;13.30;99.90;;;;;;5052473;28;19913;-69
2021/06/28 10:10:26;;;;;;;;;;;13.30;99.90;;;;;;5053365;28;19985;-69
2021/06/28 10:12:52;;;;;;;;;;;13.30;99.90;;;;;;5053565;28;19909;-68
2021/06/28 10:15:23;;;;;;;;;;;13.30;99.90;;;;;;5053669;28;19920;-68
2021/06/28 10:17:50;;;;;;;;;;;13.30;99.90;;;;;;5053544;28;19935;-69
2021/06/28 10:20:20;;;;;;;;;;;13.20;99.90;;;;;;5053490;28;19924;-68
2021/06/28 10:22:47;;;;;;;;;;;13.30;99.90;;;;;;5053475;28;19908;-68
2021/06/28 10:25:15;;;;;;;;;;;13.30;99.90;;;;;;5052204;28;19909;-70
2021/06/28 10:27:43;;;;;;;;;;;13.20;99.90;;;;;;5053435;28;19916;-68
2021/06/28 10:30:12;;;;;;;;;;;13.20;99.90;;;;;;5053492;28;19909;-68
2021/06/28 10:32:39;;;;;;;;;;;13.20;99.90;;;;;;5053510;28;20355;-68
2021/06/28 10:35:06;;;;;;;;;;;13.20;99.90;;;;;;5053437;28;20393;-68
2021/06/28 10:37:42;;;;;;;;;;;13.10;99.90;;;;;;5052523;28;19913;-69
2021/06/28 10:40:14;;;;;;;;;;;13.00;99.90;;;;;;5052821;28;19920;-68
2021/06/28 10:42:42;;;;;;;;;;;12.80;99.90;;;;;;5053092;28;19940;-69
2021/06/28 10:45:10;;;;;;;;;;;12.70;99.90;;;;;;5053165;28;19908;-68
2021/06/28 10:47:37;;;;;;;;;;;12.60;99.90;;;;;;5053325;28;19908;-68
2021/06/28 10:50:06;;;;;;;;;;;12.60;99.90;;;;;;5051786;28;19908;-70
2021/06/28 10:52:41;;;;;;;;;;;12.60;99.90;;;;;;5052813;28;19909;-70
2021/06/28 10:55:14;;;;;;;;;;;12.60;99.90;;;;;;5052966;28;19924;-70
2021/06/28 10:57:41;;;;;;;;;;;12.60;99.90;;;;;;5052830;28;19959;-69
2021/06/28 11:00:09;;;;;;;;;;;12.60;99.90;;;;;;5051730;28;19913;-69
2021/06/28 11:02:37;;;;;;;;;;;12.60;99.90;;;;;;5053138;28;19909;-69
2021/06/28 11:05:04;;;;;;;;;;;12.60;99.90;;;;;;5053074;28;19909;-69
2021/06/28 11:07:50;;;;;;;;;;;12.60;99.90;;;;;;5052604;28;19912;-69
2021/06/28 11:10:35;;;;;;;;;;;12.70;99.90;;;;;;5052750;28;20387;-70
2021/06/28 11:13:19;;;;;;;;;;;12.80;99.90;;;;;;5052676;28;19913;-69
2021/06/28 11:15:46;;;;;;;;;;;12.80;99.90;;;;;;5052737;28;20371;-69
2021/06/28 11:18:28;;;;;;;;;;;12.90;99.90;;;;;;5052834;28;19920;-68
2021/06/28 11:20:54;;;;;;;;;;;12.90;99.90;;;;;;5052313;28;19956;-69
2021/06/28 11:23:21;;;;;;;;;;;12.90;99.90;;;;;;5055178;28;19913;-68
2021/06/28 11:25:48;;;;;;;;;;;12.90;99.90;;;;;;5056636;28;19932;-69
2021/06/28 11:28:18;;;;;;;;;;;12.90;99.90;;;;;;5056871;28;20399;-68
2021/06/28 11:30:48;;;;;;;;;;;12.90;99.90;;;;;;5057103;28;20003;-68
2021/06/28 11:33:15;;;;;;;;;;;12.90;99.90;;;;;;5056755;28;19909;-69
2021/06/28 11:35:46;;;;;;;;;;;12.90;99.90;;;;;;5056187;28;19913;-69
2021/06/28 11:38:14;;;;;;;;;;;12.90;99.90;;;;;;5055394;28;19909;-69
2021/06/28 11:40:42;;;;;;;;;;;12.90;99.90;;;;;;5056500;28;19974;-69
2021/06/28 11:43:10;;;;;;;;;;;12.80;99.90;;;;;;5056512;28;20364;-70
2021/06/28 11:45:54;;;;;;;;;;;12.80;99.90;;;;;;5056327;28;19912;-70
2021/06/28 11:48:33;;;;;;;;;;;12.80;99.90;;;;;;5056639;28;19912;-69
2021/06/28 11:51:00;;;;;;;;;;;12.70;99.90;;;;;;5055959;28;19970;-69
2021/06/28 11:53:27;;;;;;;;;;;12.60;99.90;;;;;;5056261;28;19915;-69
2021/06/28 11:55:54;;;;;;;;;;;12.50;99.90;;;;;;5055415;28;20007;-69
2021/06/28 11:58:23;;;;;;;;;;;12.40;99.90;;;;;;5056315;28;19920;-69
2021/06/28 12:00:50;;;;;;;;;;;12.40;99.90;;;;;;5056256;28;19927;-69
2021/06/28 12:03:18;;;;;;;;;;;12.40;99.90;;;;;;5056202;28;20253;-69
2021/06/28 12:05:46;;;;;;;;;;;12.40;99.90;;;;;;5055594;28;19909;-69
2021/06/28 12:08:13;;;;;;;;;;;12.30;99.90;;;;;;5056186;28;19952;-69
2021/06/28 12:10:53;;;;;;;;;;;12.30;99.90;;;;;;5055807;28;19909;-70
2021/06/28 12:13:27;;;;;;;;;;;12.20;99.90;;;;;;5055649;28;19912;-69
2021/06/28 12:15:54;;;;;;;;;;;12.20;99.90;;;;;;5055955;28;19919;-70
2021/06/28 12:18:21;;;;;;;;;;;12.20;99.90;;;;;;5055820;28;19987;-69
2021/06/28 12:20:57;;;;;;;;;;;12.20;99.90;;;;;;5055796;28;19960;-69
2021/06/28 12:23:24;;;;;;;;;;;12.10;99.90;;;;;;5055945;28;19909;-69
2021/06/28 12:25:51;;;;;;;;;;;12.10;99.90;;;;;;5055541;28;19920;-69
2021/06/28 12:28:27;;;;;;;;;;;12.10;99.90;;;;;;5055916;28;19916;-69
2021/06/28 12:30:55;;;;;;;;;;;12.10;99.90;;;;;;5055608;28;19954;-69
2021/06/28 12:33:22;;;;;;;;;;;12.10;99.90;;;;;;5055174;28;20371;-69
2021/06/28 12:35:57;;;;;;;;;;;12.00;99.90;;;;;;5054718;28;20007;-70
2021/06/28 12:38:24;;;;;;;;;;;12.00;99.90;;;;;;5055594;28;19909;-69
2021/06/28 12:40:51;;;;;;;;;;;12.00;99.90;;;;;;5055464;28;20371;-69
2021/06/28 12:43:19;;;;;;;;;;;11.90;99.90;;;;;;5055503;28;20003;-68
2021/06/28 12:45:47;;;;;;;;;;;11.80;99.90;;;;;;5055243;28;19948;-69
2021/06/28 12:48:19;;;;;;;;;;;11.80;99.90;;;;;;5055295;28;19909;-69
2021/06/28 12:50:56;;;;;;;;;;;11.80;99.90;;;;;;5055428;28;19924;-69
2021/06/28 12:53:23;;;;;;;;;;;11.80;99.90;;;;;;5055448;28;20007;-69
2021/06/28 12:56:01;;;;;;;;;;;11.80;99.90;;;;;;5054988;28;20135;-69
2021/06/28 12:58:39;;;;;;;;;;;11.80;99.90;;;;;;5055301;28;19962;-70
2021/06/28 13:01:06;;;;;;;;;;;11.80;99.90;;;;;;5054018;28;20294;-69
2021/06/28 13:03:32;;;;;;;;;;;11.90;99.90;;;;;;5054846;28;20019;-69
2021/06/28 13:06:03;;;;;;;;;;;11.90;99.90;;;;;;5055126;28;20003;-69
2021/06/28 13:08:36;;;;;;;;;;;11.90;99.90;;;;;;5054924;28;20279;-69
2021/06/28 13:11:17;;;;;;;;;;;12.00;99.90;;;;;;5054478;28;19909;-69
2021/06/28 13:18:55;;;;;;;;;;;12.10;99.90;;;;;;5054511;28;19916;-69
2021/06/28 13:21:22;;;;;;;;;;;12.10;99.90;;;;;;5054760;28;19966;-69
2021/06/28 13:23:50;;;;;;;;;;;12.20;99.90;;;;;;5054539;28;20321;-69
2021/06/28 13:26:22;;;;;;;;;;;12.20;99.90;;;;;;5054853;28;19962;-69
2021/06/28 13:28:53;;;;;;;;;;;12.20;99.90;;;;;;5054822;28;19912;-69
2021/06/28 13:31:20;;;;;;;;;;;12.20;99.90;;;;;;5054695;28;19909;-69
2021/06/28 13:34:07;;;;;;;;;;;12.10;99.90;;;;;;5054440;28;20661;-69
2021/06/28 13:36:33;;;;;;;;;;;12.10;99.90;;;;;;5054615;28;19908;-68
2021/06/28 13:39:00;;;;;;;;;;;12.00;99.90;;;;;;5054419;28;19954;-68
2021/06/28 13:41:47;;;;;;;;;;;11.90;99.90;;;;;;5054521;28;19924;-68
2021/06/28 13:44:13;;;;;;;;;;;11.90;99.90;;;;;;5054118;28;19915;-68
2021/06/28 13:46:40;;;;;;;;;;;11.80;99.90;;;;;;5053922;28;20283;-68
2021/06/28 13:49:17;;;;;;;;;;;11.80;99.90;;;;;;5054434;28;20394;-68
2021/06/28 13:51:44;;;;;;;;;;;11.80;99.90;;;;;;5054145;28;19948;-69
2021/06/28 13:54:11;;;;;;;;;;;11.80;99.90;;;;;;5052831;28;19960;-69
2021/06/28 13:56:39;;;;;;;;;;;11.70;99.90;;;;;;5054212;28;19916;-68
2021/06/28 13:59:05;;;;;;;;;;;11.70;99.90;;;;;;5054313;28;19909;-69
2021/06/28 14:01:32;;;;;;;;;;;11.60;99.90;;;;;;5053723;28;19917;-68
2021/06/28 14:03:59;;;;;;;;;;;11.60;99.90;;;;;;5053946;28;20264;-69
2021/06/28 14:06:25;;;;;;;;;;;11.60;99.90;;;;;;5053979;28;19916;-69
2021/06/28 14:08:52;;;;;;;;;;;11.60;99.90;;;;;;5053706;28;19962;-70
2021/06/28 14:11:18;;;;;;;;;;;11.50;99.90;;;;;;5053772;28;19943;-69
2021/06/28 14:13:45;;;;;;;;;;;11.50;99.90;;;;;;5053424;28;20295;-69
2021/06/28 14:16:12;;;;;;;;;;;11.50;99.90;;;;;;5053911;28;19978;-70
2021/06/28 14:18:39;;;;;;;;;;;11.50;99.90;;;;;;5053755;28;19908;-68
2021/06/28 14:21:05;;;;;;;;;;;11.50;99.90;;;;;;5053623;28;20004;-69
2021/06/28 14:23:32;;;;;;;;;;;11.40;99.90;;;;;;5053333;28;19920;-69
2021/06/28 14:25:59;;;;;;;;;;;11.40;99.90;;;;;;5053732;28;19909;-69
2021/06/28 14:28:28;;;;;;;;;;;11.40;99.90;;;;;;5052305;28;20360;-69